Rechercher aéroport 
image banner adimage banner adimage banner ad
image banner ad

3CN2 - Santa Barbara Cottage Hospital

Situé à Santa Barbara, United States

ICAO - 3CN2, IATA -

Données fournies par Airmate  

Information générale

Coordonnées: N34°25'47" W119°43'27"
Élévation : 201 feet MSL.
 
Voir autres Aéroports à California

Données opérationnelles

Special qualification required
Heure actuelle UTC:
Heure actuelle locale:
Météo à : KSBA - Santa Barbara Muni ( 11 km )
METAR: KSBA 212153Z 25010KT 10SM CLR 22/16 A3005 RMK AO2 SLP174 T02170156 $
TAF: KSBA 211957Z 2120/2218 21006KT P6SM SKC FM212100 23008KT P6SM SKC FM220300 VRB03KT P6SM SKC FM220700 VRB03KT 6SM BR OVC005 FM221000 VRB03KT 1SM BR OVC003 FM221500 VRB03KT 3SM BR OVC005
Voir NOTAMs / SUP AIP / TFR affectant cet aéroport [VIEW]
Fréquences de communication: [VIEW]

Pistes:

Coordonnées de l'aéroport

Adresse: Santa Barbara United States

Vue satellite de 3CN2